Airfield :
LOGIN :

Register | Disclaimer

   EN    FR    IT 

 










Legend :    VFR   Marginal VFR   IFR   Intensive IFR   Very Intensive IFR
Visi :
Ceiling :
>= 8 km
>= 3000ft
5 to 8 km
1000 to 3000 ft
1500m to 5 km
500 to 1000 ft
800 to 1500m
200 to 500 ft
< 800m
< 200 ft
Symbols :   Thunderstorms  Fog  Heavy snow  Heavy precipitations  Wind > 20 kt
SIGMETs :     Misc.  Thunderstorms  Icing  Turbulence  Mountain Waves  Volcanic Ashes







- Airport Elevation : 157 ft
- IATA code : LIL
- Download approach charts


LFQQ - Lille Lesquin

CURRENT METAR :
  • 211430Z AUTO 31008KT CAVOK 26/12 Q1013 TEMPO 4000 SHRA BKN040TCU

EXPIRED METARs :
  • 211400Z AUTO 31010KT 280V340 CAVOK 25/12 Q1013 TEMPO 4000 SHRA BKN040TCU
  • 211330Z AUTO 30007KT 260V340 CAVOK 25/12 Q1013 TEMPO 4000 SHRA BKN040TCU
  • 211300Z AUTO VRB05KT CAVOK 26/12 Q1013 TEMPO 4000 SHRA BKN040TCU
  • 211230Z AUTO VRB03KT CAVOK 27/12 Q1013 TEMPO 4000 SHRA BKN040TCU
  • 211200Z AUTO 02004KT 320V130 CAVOK 26/10 Q1013 TEMPO 4000 SHRA BKN040TCU

TAF TAF LFQQ
Valid from the 21 at 12:00 until the 22 at 18:00 UTC


211100Z 2112/2218 36005KT CAVOK
PROB40
TEMPO 2112/2117 4000 SHRA BKN040TCU
PROB40
TEMPO 2211/2216 4000 SHRA BKN040TCU
ATIS : +33 3 20 16 19 54
No reported NOTAMs for that airfield.



MET'MAP, your aeronautical weather chart ! - Copyright ORBIFLY December 2007 - Disclaimer

ORBIFLY MET'MAP TEAM :

Programming & Development : Alexandra Zaïnal
Concept & Development : Baudouin d'Aumeries
Co-Development & Prog : Marc-Olivier Méhu
Technical & hardware support : Manuel Goepfert

Contact : metmap@orbifly.com




SOURCES & CREDITS :

   NOAA